Time;durP1;ratioP1;P1;durP2;ratioP2;P2;SDS_P1;SDS_P2;PMS_P1;PMS_P2;Temp;Humidity;BMP_temperature;BMP_pressure;BME280_temperature;BME280_humidity;BME280_pressure;Samples;Min_cycle;Max_cycle;Signal;HPM_P1;HPM_P2
2023/06/09 00:00:49;;;;;;;2.58;1.85;;;;;;;8.19;88.89;101078.19;10320407;28;21322;-79
2023/06/09 00:05:52;;;;;;;2.22;1.80;;;;;;;8.24;89.51;101091.09;10278385;28;20043;-80
2023/06/09 00:10:54;;;;;;;2.22;1.60;;;;;;;8.19;89.31;101082.81;10314007;28;20054;-79
2023/06/09 00:15:56;;;;;;;2.28;1.70;;;;;;;8.16;89.34;101090.47;10322271;28;20051;-80
2023/06/09 00:20:59;;;;;;;2.67;1.90;;;;;;;8.04;88.27;101089.75;10320012;28;20050;-79
2023/06/09 00:26:02;;;;;;;2.05;1.25;;;;;;;8.00;88.40;101090.50;10286737;28;20058;-79
2023/06/09 00:31:04;;;;;;;2.35;1.85;;;;;;;7.89;88.03;101092.28;10291740;28;20055;-79
2023/06/09 00:36:07;;;;;;;1.88;1.33;;;;;;;7.83;88.35;101098.75;10279497;28;20055;-79
2023/06/09 00:41:10;;;;;;;2.58;1.50;;;;;;;7.83;88.41;101096.84;10278498;28;20043;-80
2023/06/09 00:46:12;;;;;;;3.25;1.70;;;;;;;7.79;88.48;101097.56;10289255;28;20105;-79
2023/06/09 00:51:14;;;;;;;2.33;1.42;;;;;;;7.74;88.57;101098.34;10290848;28;20410;-79
2023/06/09 00:56:18;;;;;;;2.35;1.23;;;;;;;7.67;88.66;101108.63;10289295;28;20059;-80
2023/06/09 01:01:20;;;;;;;3.50;1.58;;;;;;;7.66;88.03;101117.06;10294465;28;20042;-80
2023/06/09 01:06:47;;;;;;;2.00;1.42;;;;;;;7.63;87.92;101112.09;10271575;28;20399;-80
2023/06/09 01:12:10;;;;;;;4.28;1.27;;;;;;;7.68;87.89;101118.47;10291578;28;20409;-80
2023/06/09 01:17:18;;;;;;;1.67;1.35;;;;;;;7.58;87.61;101123.78;10281715;28;20043;-80
2023/06/09 01:22:24;;;;;;;;;;;;;;;7.52;87.17;101131.06;10307292;28;20520;-80
2023/06/09 01:27:29;;;;;;;1.25;1.10;;;;;;;7.44;87.51;101122.44;10254898;28;19926;-80
2023/06/09 01:32:31;;;;;;;4.20;1.42;;;;;;;7.44;87.94;101131.47;10278836;28;20035;-80
2023/06/09 01:37:34;;;;;;;1.58;1.10;;;;;;;7.50;87.28;101125.03;10294100;28;20042;-80
2023/06/09 01:42:36;;;;;;;1.25;1.15;;;;;;;7.52;87.75;101142.00;10282291;28;20035;-79
2023/06/09 01:47:38;;;;;;;1.42;1.10;;;;;;;7.60;87.81;101139.91;10294876;28;20034;-80
2023/06/09 01:52:49;;;;;;;1.63;1.20;;;;;;;7.76;87.31;101148.09;10274510;28;20530;-80
2023/06/09 01:58:01;;;;;;;1.83;1.27;;;;;;;8.12;86.59;101154.91;10301065;28;20063;-80
2023/06/09 02:03:05;;;;;;;1.60;1.33;;;;;;;8.43;85.43;101158.06;10265329;28;20042;-80
2023/06/09 02:08:08;;;;;;;1.63;1.13;;;;;;;8.75;84.01;101149.97;10293168;28;20094;-80
2023/06/09 02:13:15;;;;;;;1.40;1.30;;;;;;;8.85;82.74;101157.47;10287109;28;20043;-81
2023/06/09 02:18:21;;;;;;;1.75;1.23;;;;;;;9.06;81.38;101156.63;10305633;28;20047;-79
2023/06/09 02:23:23;;;;;;;2.40;1.42;;;;;;;9.10;79.59;101162.38;10301864;28;20054;-79
2023/06/09 02:28:25;;;;;;;1.67;1.50;;;;;;;9.21;79.89;101161.41;10257953;28;20062;-79
2023/06/09 02:33:28;;;;;;;1.92;1.23;;;;;;;9.32;79.60;101163.97;10300554;28;20041;-79
2023/06/09 02:38:31;;;;;;;2.00;1.20;;;;;;;9.77;78.08;101162.72;10306986;28;20034;-79
2023/06/09 02:43:33;;;;;;;1.77;1.40;;;;;;;9.96;76.07;101182.31;10297348;28;20059;-79
2023/06/09 02:48:36;;;;;;;2.05;1.38;;;;;;;9.96;76.02;101174.91;10290173;28;20035;-79
2023/06/09 02:53:38;;;;;;;2.08;1.50;;;;;;;10.11;74.28;101182.41;10285412;28;20422;-79
2023/06/09 02:58:41;;;;;;;2.00;1.50;;;;;;;10.31;74.17;101187.22;10262500;28;20042;-79
2023/06/09 03:03:45;;;;;;;1.58;1.30;;;;;;;10.66;72.91;101191.22;10300421;28;20087;-79
2023/06/09 03:08:48;;;;;;;1.92;1.60;;;;;;;10.79;71.63;101187.97;10280181;28;20035;-79
2023/06/09 03:13:51;;;;;;;1.60;1.17;;;;;;;11.04;71.03;101196.28;10302839;28;20047;-79
2023/06/09 03:18:54;;;;;;;2.90;1.38;;;;;;;11.24;69.47;101201.00;10289697;28;20045;-79
2023/06/09 03:23:57;;;;;;;0.85;0.82;;;;;;;11.42;68.80;101196.91;10305078;28;20046;-79
2023/06/09 03:28:59;;;;;;;0.80;0.80;;;;;;;11.41;68.95;101207.06;10289306;28;20403;-79
2023/06/09 03:34:03;;;;;;;1.65;0.98;;;;;;;11.97;66.30;101211.78;10289739;28;20042;-79
2023/06/09 03:39:05;;;;;;;2.03;1.00;;;;;;;11.78;66.53;101227.97;10295425;28;20058;-80
2023/06/09 03:44:07;;;;;;;1.63;0.90;;;;;;;12.07;65.83;101233.78;10295885;28;20051;-80
2023/06/09 03:49:10;;;;;;;1.45;0.90;;;;;;;12.38;64.61;101229.06;10287315;28;20062;-79
2023/06/09 03:54:12;;;;;;;1.38;0.80;;;;;;;12.44;64.45;101238.13;10307631;28;20421;-80
2023/06/09 03:59:15;;;;;;;1.00;0.90;;;;;;;12.51;63.41;101247.75;10323281;28;20071;-80
2023/06/09 04:04:19;;;;;;;0.82;0.82;;;;;;;12.75;62.72;101241.63;10302086;28;20047;-79
2023/06/09 04:09:22;;;;;;;1.40;1.10;;;;;;;12.89;61.98;101246.25;10306099;28;20054;-78
2023/06/09 04:14:24;;;;;;;0.90;0.75;;;;;;;13.18;61.28;101251.91;10298931;28;20061;-78
2023/06/09 04:19:27;;;;;;;1.23;1.00;;;;;;;13.41;60.87;101244.91;10299737;28;20035;-79
2023/06/09 04:24:29;;;;;;;1.35;1.02;;;;;;;13.68;59.82;101246.38;10294527;28;20070;-79
2023/06/09 04:29:37;;;;;;;0.60;0.60;;;;;;;13.86;58.86;101254.78;10305903;28;20058;-78
2023/06/09 04:34:40;;;;;;;0.80;0.80;;;;;;;13.87;58.68;101256.41;10296221;28;20057;-78
2023/06/09 04:39:45;;;;;;;1.27;0.95;;;;;;;14.52;58.03;101269.13;10308212;28;20054;-78
2023/06/09 04:44:53;;;;;;;;;;;;;;;14.22;57.17;101281.25;10276465;28;20062;-79
2023/06/09 04:49:59;;;;;;;0.80;0.80;;;;;;;14.54;56.72;101288.97;10306592;28;19922;-77
2023/06/09 04:55:02;;;;;;;1.95;0.88;;;;;;;14.86;56.58;101288.38;10295179;28;20061;-77
2023/06/09 05:00:07;;;;;;;1.83;0.70;;;;;;;14.30;56.53;101295.25;10295821;28;20062;-77
2023/06/09 05:05:11;;;;;;;0.95;0.70;;;;;;;13.23;59.04;101306.22;10300473;28;20038;-77
2023/06/09 05:10:13;;;;;;;0.75;0.75;;;;;;;12.72;59.83;101309.09;10323296;28;20054;-77
2023/06/09 05:15:16;;;;;;;1.15;0.70;;;;;;;13.32;59.42;101300.91;10305628;28;20073;-77
2023/06/09 05:20:21;;;;;;;0.82;0.77;;;;;;;13.97;56.91;101304.38;10302883;28;20151;-79
2023/06/09 05:25:25;;;;;;;0.47;0.47;;;;;;;13.48;58.24;101328.13;10294355;28;20054;-78
2023/06/09 05:30:27;;;;;;;1.52;0.80;;;;;;;12.81;59.68;101329.44;10321273;28;20089;-78
2023/06/09 05:35:30;;;;;;;1.05;0.65;;;;;;;12.70;59.90;101338.84;10290027;28;20054;-80
2023/06/09 05:40:32;;;;;;;1.17;0.80;;;;;;;12.48;60.19;101343.81;10321408;28;20452;-79
2023/06/09 05:45:35;;;;;;;1.00;0.90;;;;;;;12.25;61.26;101348.78;10290793;28;20043;-81
2023/06/09 05:50:40;;;;;;;0.70;0.70;;;;;;;13.33;58.54;101361.28;10310507;28;20047;-81
2023/06/09 05:55:47;;;;;;;1.23;0.70;;;;;;;13.13;58.39;101372.34;10307153;28;20057;-80
2023/06/09 06:00:49;;;;;;;0.68;0.68;;;;;;;12.74;59.67;101378.50;10319064;28;20530;-81
2023/06/09 06:05:52;;;;;;;1.17;0.80;;;;;;;12.35;60.44;101392.84;10297023;28;20051;-81
2023/06/09 06:10:54;;;;;;;0.63;0.63;;;;;;;11.92;61.25;101394.13;10322115;28;20043;-82
2023/06/09 06:15:59;;;;;;;0.98;0.80;;;;;;;11.55;61.27;101399.78;10296621;28;20449;-82
2023/06/09 06:21:01;;;;;;;1.10;0.70;;;;;;;11.43;62.28;101407.41;10286427;28;20525;-82
2023/06/09 06:26:03;;;;;;;2.13;0.88;;;;;;;11.53;62.46;101421.22;10283139;28;20051;-83
2023/06/09 06:31:06;;;;;;;6.72;1.00;;;;;;;11.62;61.14;101429.75;10311125;28;20055;-82
2023/06/09 06:36:08;;;;;;;1.10;0.90;;;;;;;11.74;61.22;101428.44;10324510;28;20055;-82
2023/06/09 06:41:10;;;;;;;1.15;0.80;;;;;;;11.94;61.42;101426.88;10327709;28;20047;-82
2023/06/09 06:46:15;;;;;;;0.93;0.80;;;;;;;11.94;61.46;101440.63;10301777;28;20415;-82
2023/06/09 06:51:17;;;;;;;2.35;0.77;;;;;;;12.77;59.66;101438.53;10297042;28;20051;-82
2023/06/09 06:56:21;;;;;;;1.33;0.70;;;;;;;14.16;54.61;101438.63;10273886;28;20414;-83
2023/06/09 07:01:24;;;;;;;1.88;1.15;;;;;;;14.45;53.09;101440.69;10289987;29;20453;-84
2023/06/09 07:06:27;;;;;;;2.13;0.90;;;;;;;13.91;54.01;101440.72;10315840;28;20509;-86
2023/06/09 07:11:32;;;;;;;2.25;1.00;;;;;;;13.71;53.55;101449.91;10320415;28;20050;-86
2023/06/09 07:16:34;;;;;;;2.47;1.10;;;;;;;13.04;56.04;101470.47;10324770;28;20061;-86
2023/06/09 07:21:36;;;;;;;1.23;0.90;;;;;;;12.57;55.52;101485.34;10328651;28;20043;-86
2023/06/09 07:26:38;;;;;;;1.10;0.93;;;;;;;12.34;57.00;101492.19;10323461;28;20054;-85
2023/06/09 07:31:41;;;;;;;1.15;1.05;;;;;;;12.50;57.84;101491.13;10306796;28;20050;-85
2023/06/09 07:36:43;;;;;;;3.03;1.10;;;;;;;12.36;58.50;101499.06;10328342;28;20050;-85
2023/06/09 07:41:46;;;;;;;1.83;1.40;;;;;;;12.23;59.82;101510.59;10327550;28;20414;-85
2023/06/09 07:46:50;;;;;;;1.48;1.10;;;;;;;11.93;60.68;101514.06;10327810;28;20051;-85
2023/06/09 07:51:52;;;;;;;1.83;1.20;;;;;;;11.93;61.77;101525.06;10327243;28;20046;-85
2023/06/09 07:56:54;;;;;;;1.27;1.13;;;;;;;11.95;60.50;101530.28;10309232;28;20436;-85
2023/06/09 08:01:56;;;;;;;1.38;1.27;;;;;;;11.73;60.31;101530.44;10326910;28;20043;-86
2023/06/09 08:06:59;;;;;;;1.40;1.30;;;;;;;11.61;60.97;101538.88;10327317;28;20043;-85
2023/06/09 08:12:01;;;;;;;6.97;1.15;;;;;;;11.79;61.57;101540.38;10327479;28;20509;-85
2023/06/09 08:17:03;;;;;;;7.80;4.25;;;;;;;11.75;61.33;101542.00;10309524;28;20053;-85
2023/06/09 08:22:06;;;;;;;4.55;1.20;;;;;;;11.67;61.94;101542.50;10327151;28;20434;-85
2023/06/09 08:27:08;;;;;;;1.92;1.10;;;;;;;11.84;61.78;101548.69;10309145;28;20050;-85
2023/06/09 08:32:10;;;;;;;2.10;1.50;;;;;;;12.40;60.26;101557.16;10327327;28;20050;-86
2023/06/09 08:37:12;;;;;;;2.30;1.30;;;;;;;13.94;55.93;101540.31;10326197;28;20406;-85
2023/06/09 08:42:20;;;;;;;1.63;1.20;;;;;;;15.18;52.41;101542.06;10325983;28;20043;-85
2023/06/09 08:47:23;;;;;;;1.40;1.30;;;;;;;15.37;51.86;101551.28;10325630;28;20158;-86
2023/06/09 08:52:27;;;;;;;2.47;1.42;;;;;;;14.85;51.81;101554.75;10325052;28;20070;-86
2023/06/09 08:57:30;;;;;;;3.22;1.58;;;;;;;14.55;52.43;101561.28;10326005;28;20039;-85
2023/06/09 09:02:32;;;;;;;1.58;1.48;;;;;;;13.94;54.64;101578.94;10324974;28;20047;-85
2023/06/09 09:07:34;;;;;;;1.75;1.23;;;;;;;12.79;58.13;101598.00;10325386;28;20054;-85
2023/06/09 09:12:50;;;;;;;1.52;1.42;;;;;;;12.19;61.90;101603.03;10307853;28;20062;-85
2023/06/09 09:17:53;;;;;;;3.08;1.40;;;;;;;11.66;62.66;101604.09;10325402;28;20567;-86
2023/06/09 09:22:55;;;;;;;2.83;1.38;;;;;;;12.44;64.35;101606.97;10317524;28;20043;-84
2023/06/09 09:28:15;;;;;;;2.38;1.45;;;;;;;12.62;61.24;101623.00;10288140;28;20047;-85
2023/06/09 09:33:26;;;;;;;1.73;1.60;;;;;;;12.53;61.61;101614.47;10283653;29;20055;-86
2023/06/09 09:38:30;;;;;;;1.35;1.20;;;;;;;12.53;61.08;101625.47;10300111;28;20154;-85
2023/06/09 09:43:32;;;;;;;2.20;1.08;;;;;;;12.91;58.66;101632.44;10322979;28;20050;-86
2023/06/09 09:48:38;;;;;;;0.85;0.82;;;;;;;13.23;56.74;101640.53;10323519;28;20073;-87
2023/06/09 09:53:44;;;;;;;0.82;0.82;;;;;;;13.39;55.29;101633.09;10323362;28;20505;-86
2023/06/09 09:58:49;;;;;;;1.10;1.00;;;;;;;13.51;53.86;101633.63;10322674;28;20049;-87
2023/06/09 10:03:53;;;;;;;1.02;0.80;;;;;;;13.31;52.87;101639.13;10308179;28;20038;-87
2023/06/09 10:08:58;;;;;;;1.08;0.80;;;;;;;13.05;53.86;101642.97;10322502;28;20142;-86
2023/06/09 10:14:00;;;;;;;1.10;1.00;;;;;;;12.83;55.07;101641.22;10300833;28;20043;-86
2023/06/09 10:19:02;;;;;;;0.80;0.80;;;;;;;12.76;54.46;101640.69;10322515;28;20042;-86
2023/06/09 10:24:06;;;;;;;2.10;0.90;;;;;;;12.80;52.44;101643.72;10306114;28;20046;-86
2023/06/09 10:29:09;;;;;;;1.05;0.70;;;;;;;13.08;51.62;101636.88;10305929;28;20054;-87
2023/06/09 10:34:13;;;;;;;0.90;0.70;;;;;;;13.14;49.92;101631.09;10322153;28;20058;-86
2023/06/09 10:39:20;;;;;;;1.52;1.02;;;;;;;13.15;51.26;101653.97;10305197;28;20043;-87
2023/06/09 10:45:01;;;;;;;0.60;0.60;;;;;;;13.10;51.44;101667.75;10322655;28;20066;-87
2023/06/09 10:50:03;;;;;;;2.95;0.90;;;;;;;12.99;50.82;101659.44;10319466;28;20051;-86
2023/06/09 10:55:13;;;;;;;0.80;0.80;;;;;;;13.13;51.27;101668.03;10317983;28;20051;-87
2023/06/09 11:00:15;;;;;;;1.00;0.73;;;;;;;13.41;48.19;101669.47;10322009;28;20434;-86
2023/06/09 11:05:20;;;;;;;2.03;0.80;;;;;;;13.70;46.12;101666.97;10304893;28;20058;-87
2023/06/09 11:10:25;;;;;;;2.65;0.70;;;;;;;13.68;46.01;101668.38;10321629;28;20071;-87
2023/06/09 11:15:54;;;;;;;0.90;0.80;;;;;;;13.62;45.38;101683.25;10296692;28;20149;-87
2023/06/09 11:21:23;;;;;;;2.08;0.80;;;;;;;13.29;47.59;101693.72;10292623;28;20043;-86
2023/06/09 11:26:25;;;;;;;0.68;0.68;;;;;;;12.52;52.23;101708.34;10313292;28;20058;-90
2023/06/09 11:31:28;;;;;;;0.77;0.65;;;;;;;11.99;53.57;101686.28;10300879;28;20047;-84
2023/06/09 11:36:30;;;;;;;0.63;0.63;;;;;;;11.98;54.03;101692.06;10314594;28;20059;-85
2023/06/09 11:41:32;;;;;;;2.33;0.80;;;;;;;12.23;53.18;101703.22;10299511;28;20536;-81
2023/06/09 11:46:35;;;;;;;1.15;0.80;;;;;;;12.56;51.50;101707.53;10303417;28;20054;-83
2023/06/09 11:51:57;;;;;;;1.67;1.10;;;;;;;12.81;52.24;101712.28;10316117;28;20047;-81
2023/06/09 11:56:59;;;;;;;1.23;0.90;;;;;;;12.64;50.54;101706.16;10318595;28;20095;-80
2023/06/09 12:02:01;;;;;;;1.52;1.17;;;;;;;12.63;50.32;101708.09;10312960;28;20449;-79
2023/06/09 12:07:04;;;;;;;2.60;0.80;;;;;;;12.72;50.76;101702.91;10308371;28;20055;-82
2023/06/09 12:12:06;;;;;;;1.73;1.13;;;;;;;12.96;49.41;101701.34;10323225;28;20059;-82
2023/06/09 12:17:09;;;;;;;1.27;0.93;;;;;;;13.37;49.40;101709.75;10327192;28;20043;-78
2023/06/09 12:22:12;;;;;;;1.38;0.47;;;;;;;13.29;48.25;101732.31;10300600;28;20051;-77
2023/06/09 12:27:14;;;;;;;2.17;1.00;;;;;;;13.14;48.10;101721.22;10316584;28;20051;-77
2023/06/09 12:32:23;;;;;;;2.40;0.88;;;;;;;13.10;48.70;101737.47;10312898;28;20054;-82
2023/06/09 12:37:26;;;;;;;1.75;0.88;;;;;;;12.91;49.87;101730.81;10304094;28;20039;-81
2023/06/09 12:42:29;;;;;;;0.95;0.80;;;;;;;12.57;52.62;101735.88;10268387;29;20043;-81
2023/06/09 12:47:31;;;;;;;1.98;1.10;;;;;;;12.65;52.73;101732.59;10280865;28;20057;-83
2023/06/09 12:52:33;;;;;;;1.58;1.08;;;;;;;12.83;51.01;101731.31;10324405;28;20531;-82
2023/06/09 12:57:36;;;;;;;1.00;1.00;;;;;;;12.85;50.41;101729.97;10298663;28;20058;-82
2023/06/09 13:02:39;;;;;;;1.98;1.10;;;;;;;12.96;50.31;101728.06;10295282;28;20058;-82
2023/06/09 13:07:42;;;;;;;1.20;0.95;;;;;;;13.31;49.05;101713.56;10298340;28;20042;-82
2023/06/09 13:12:50;;;;;;;1.33;1.10;;;;;;;13.59;49.10;101720.50;10284482;28;20059;-82
2023/06/09 13:17:54;;;;;;;1.60;1.30;;;;;;;13.65;46.93;101729.59;10307078;28;20058;-82
2023/06/09 13:22:56;;;;;;;2.03;1.00;;;;;;;13.52;47.37;101733.72;10324186;28;20047;-80
2023/06/09 13:27:58;;;;;;;1.08;1.00;;;;;;;13.46;46.39;101727.38;10292636;28;20042;-80
2023/06/09 13:33:01;;;;;;;1.15;1.10;;;;;;;13.63;46.44;101731.81;10311727;28;20055;-80
2023/06/09 13:38:06;;;;;;;0.80;0.80;;;;;;;13.82;46.12;101721.88;10320518;28;20077;-78
2023/06/09 13:43:12;;;;;;;1.15;1.10;;;;;;;13.72;45.98;101727.41;10285824;28;20047;-79
2023/06/09 13:48:14;;;;;;;2.58;1.15;;;;;;;13.55;46.53;101727.69;10294606;28;20051;-79
2023/06/09 13:53:16;;;;;;;1.10;1.00;;;;;;;13.54;46.27;101729.59;10294454;28;20046;-80
2023/06/09 13:58:18;;;;;;;2.58;1.40;;;;;;;13.52;46.60;101729.03;10300300;28;20518;-82
2023/06/09 14:03:22;;;;;;;1.20;1.10;;;;;;;13.61;45.99;101732.09;10295067;28;20051;-79
2023/06/09 14:08:24;;;;;;;1.70;0.82;;;;;;;13.68;45.34;101745.59;10315059;28;20041;-80
2023/06/09 14:13:26;;;;;;;1.08;0.90;;;;;;;13.76;44.86;101725.75;10297355;28;20047;-78
2023/06/09 14:18:28;;;;;;;1.20;0.90;;;;;;;13.73;44.87;101721.63;10275842;28;20062;-84
2023/06/09 14:23:31;;;;;;;1.30;1.17;;;;;;;13.71;44.65;101731.25;10309564;28;20055;-82
2023/06/09 14:28:33;;;;;;;1.75;1.02;;;;;;;13.60;43.22;101721.34;10299165;28;20050;-79
2023/06/09 14:33:35;;;;;;;1.83;1.10;;;;;;;13.56;43.49;101729.34;10317678;28;20047;-79
2023/06/09 14:38:39;;;;;;;1.00;0.82;;;;;;;13.37;42.66;101737.31;10273645;28;20039;-80
2023/06/09 14:43:41;;;;;;;1.83;0.93;;;;;;;13.32;43.72;101739.19;10312206;28;20051;-79
2023/06/09 14:48:45;;;;;;;1.70;1.13;;;;;;;13.19;43.92;101751.56;10319626;28;20054;-79
2023/06/09 14:53:47;;;;;;;2.08;1.20;;;;;;;13.07;45.15;101745.47;10306854;28;20049;-78
2023/06/09 14:58:49;;;;;;;1.30;0.98;;;;;;;13.03;45.24;101747.09;10323547;28;20514;-78
2023/06/09 15:03:53;;;;;;;1.55;1.30;;;;;;;13.02;44.16;101751.78;10317248;28;20053;-77
2023/06/09 15:08:55;;;;;;;0.70;0.70;;;;;;;12.97;44.22;101762.78;10293847;28;20038;-77
2023/06/09 15:13:57;;;;;;;2.95;1.00;;;;;;;13.01;44.15;101754.78;10302262;28;20528;-77
2023/06/09 15:18:59;;;;;;;1.20;1.10;;;;;;;13.03;44.36;101760.88;10310558;28;20051;-77
2023/06/09 15:24:02;;;;;;;1.73;1.27;;;;;;;12.99;44.71;101755.06;10317385;28;20053;-77
2023/06/09 15:29:05;;;;;;;1.00;0.90;;;;;;;12.98;44.41;101753.41;10306107;28;20386;-77
2023/06/09 15:34:07;;;;;;;1.05;0.95;;;;;;;13.07;44.58;101762.00;10307333;28;20039;-77
2023/06/09 15:39:09;;;;;;;0.60;0.55;;;;;;;13.04;43.70;101759.78;10313962;28;20774;-77
2023/06/09 15:44:12;;;;;;;0.70;0.70;;;;;;;13.03;42.98;101766.41;10320678;28;20621;-79
2023/06/09 15:49:15;;;;;;;1.30;0.70;;;;;;;13.14;43.00;101773.56;10281820;28;20047;-79
2023/06/09 15:54:17;;;;;;;0.93;0.75;;;;;;;13.14;42.77;101774.41;10313600;28;20421;-78
2023/06/09 15:59:20;;;;;;;1.05;0.98;;;;;;;13.05;43.06;101775.22;10317761;28;20043;-79
2023/06/09 16:04:23;;;;;;;0.80;0.60;;;;;;;12.85;44.35;101776.78;10299828;28;20036;-80
2023/06/09 16:09:25;;;;;;;1.58;0.82;;;;;;;12.79;43.85;101791.63;10309152;28;20042;-81
2023/06/09 16:14:27;;;;;;;0.80;0.73;;;;;;;12.61;44.50;101803.91;10323178;28;20077;-77
2023/06/09 16:19:30;;;;;;;1.15;0.80;;;;;;;12.52;44.21;101789.00;10315085;28;20031;-78
2023/06/09 16:24:32;;;;;;;0.57;0.57;;;;;;;12.50;44.48;101795.88;10306259;28;20035;-78
2023/06/09 16:29:35;;;;;;;0.60;0.60;;;;;;;12.44;44.36;101814.25;10276584;28;20059;-80
2023/06/09 16:34:37;;;;;;;0.60;0.50;;;;;;;12.43;44.11;101811.78;10309310;28;20050;-78
2023/06/09 16:39:41;;;;;;;1.73;0.77;;;;;;;12.41;44.87;101812.03;10297999;28;20053;-78
2023/06/09 16:44:44;;;;;;;1.00;0.70;;;;;;;12.38;44.29;101807.06;10298337;28;20062;-77
2023/06/09 16:49:46;;;;;;;1.02;0.68;;;;;;;12.27;44.24;101808.09;10313856;28;20047;-78
2023/06/09 16:54:48;;;;;;;0.70;0.60;;;;;;;12.18;45.11;101809.69;10315469;28;20522;-79
2023/06/09 16:59:51;;;;;;;0.57;0.57;;;;;;;12.00;44.35;101816.41;10311065;28;20405;-77
2023/06/09 17:04:53;;;;;;;1.25;0.75;;;;;;;11.88;44.11;101821.25;10316639;28;20034;-76
2023/06/09 17:09:56;;;;;;;0.98;0.50;;;;;;;11.82;45.18;101819.56;10299281;28;20046;-77
2023/06/09 17:14:58;;;;;;;0.93;0.70;;;;;;;11.75;45.64;101827.97;10307121;28;20050;-78
2023/06/09 17:20:00;;;;;;;1.20;0.70;;;;;;;11.75;45.31;101837.03;10315231;28;20047;-78
2023/06/09 17:25:03;;;;;;;1.63;1.02;;;;;;;11.77;45.35;101825.78;10294952;28;20485;-77
2023/06/09 17:30:06;;;;;;;1.00;0.85;;;;;;;11.81;44.92;101831.66;10286016;28;20043;-76
2023/06/09 17:35:08;;;;;;;0.75;0.70;;;;;;;11.81;45.73;101831.66;10306958;28;20051;-75
2023/06/09 17:40:11;;;;;;;0.68;0.60;;;;;;;11.70;45.78;101837.00;10308076;28;20045;-75
2023/06/09 17:45:13;;;;;;;1.30;0.85;;;;;;;11.62;46.13;101834.69;10298644;28;20422;-77
2023/06/09 17:50:15;;;;;;;1.85;0.70;;;;;;;11.62;46.50;101831.94;10318266;28;20047;-79
2023/06/09 17:55:18;;;;;;;1.05;0.70;;;;;;;11.58;46.36;101846.47;10292196;28;20399;-82
2023/06/09 18:00:20;;;;;;;2.00;0.98;;;;;;;11.44;45.93;101846.88;10294058;28;20414;-81
2023/06/09 18:05:22;;;;;;;1.42;0.98;;;;;;;11.38;46.10;101860.81;10289655;28;20043;-86
2023/06/09 18:10:24;;;;;;;2.05;1.02;;;;;;;11.43;46.57;101858.13;10295914;28;20054;-77
2023/06/09 18:15:26;;;;;;;3.33;1.38;;;;;;;11.46;46.56;101866.72;10301437;28;20042;-77
2023/06/09 18:20:29;;;;;;;1.17;0.85;;;;;;;11.49;46.72;101862.63;10305609;28;20041;-80
2023/06/09 18:25:34;;;;;;;1.05;0.90;;;;;;;11.48;46.73;101864.53;10304152;28;20034;-78
2023/06/09 18:30:36;;;;;;;1.95;1.35;;;;;;;11.56;46.65;101876.97;10285852;28;20059;-78
2023/06/09 18:35:38;;;;;;;1.38;0.90;;;;;;;11.54;46.65;101875.59;10317320;28;20058;-83
2023/06/09 18:40:40;;;;;;;1.33;1.10;;;;;;;11.46;46.12;101885.97;10287677;28;20510;-80
2023/06/09 18:45:42;;;;;;;1.27;0.95;;;;;;;11.41;46.43;101890.53;10313390;28;20050;-80
2023/06/09 18:50:44;;;;;;;2.55;0.90;;;;;;;11.46;46.49;101890.63;10322513;28;20051;-78
2023/06/09 18:55:47;;;;;;;1.48;1.13;;;;;;;11.50;46.88;101901.94;10302720;28;20055;-78
2023/06/09 19:00:49;;;;;;;3.05;1.42;;;;;;;11.35;47.10;101908.91;10320735;28;20046;-78
2023/06/09 19:05:51;;;;;;;1.33;0.90;;;;;;;11.26;46.98;101918.66;10298121;28;20044;-77
2023/06/09 19:10:54;;;;;;;2.05;1.05;;;;;;;11.20;46.78;101921.59;10312765;28;20627;-78
2023/06/09 19:15:56;;;;;;;3.42;1.25;;;;;;;11.23;47.68;101929.31;10318013;28;20039;-83
2023/06/09 19:20:59;;;;;;;2.47;1.35;;;;;;;11.25;47.27;101924.41;10283494;28;20039;-81
2023/06/09 19:26:01;;;;;;;2.05;1.20;;;;;;;11.23;47.17;101924.66;10302104;28;20035;-82
2023/06/09 19:31:04;;;;;;;1.85;0.63;;;;;;;11.20;47.57;101935.34;10294188;28;20387;-79
2023/06/09 19:36:06;;;;;;;0.60;0.60;;;;;;;11.17;47.11;101937.50;10296133;28;20058;-81
2023/06/09 19:41:08;;;;;;;1.35;0.75;;;;;;;11.16;47.41;101940.50;10299521;28;20422;-77
2023/06/09 19:46:11;;;;;;;1.65;0.90;;;;;;;11.23;47.29;101952.13;10309918;28;20055;-79
2023/06/09 19:51:14;;;;;;;1.10;0.70;;;;;;;11.22;48.01;101957.88;10303963;28;20414;-80
2023/06/09 19:56:16;;;;;;;2.13;1.10;;;;;;;11.18;47.83;101960.31;10303064;28;20035;-79
2023/06/09 20:01:19;;;;;;;1.55;1.00;;;;;;;11.14;47.76;101962.75;10292531;28;20038;-84
2023/06/09 20:06:22;;;;;;;2.47;0.90;;;;;;;11.04;48.22;101968.06;10289402;28;20423;-77
2023/06/09 20:11:25;;;;;;;2.53;0.82;;;;;;;10.98;47.89;101971.84;10307863;28;20048;-78
2023/06/09 20:16:27;;;;;;;1.05;0.80;;;;;;;10.98;48.25;101977.34;10293409;28;20043;-78
2023/06/09 20:21:29;;;;;;;1.20;0.82;;;;;;;11.01;48.02;101976.81;10319110;28;20073;-80
2023/06/09 20:26:31;;;;;;;0.90;0.80;;;;;;;11.03;48.50;101984.81;10304123;28;20540;-80
2023/06/09 20:31:34;;;;;;;2.85;0.88;;;;;;;11.10;48.59;101985.47;10281903;28;20050;-80
2023/06/09 20:36:38;;;;;;;3.00;1.35;;;;;;;11.07;51.13;101988.72;10312256;28;20042;-81
2023/06/09 20:41:41;;;;;;;3.33;1.50;;;;;;;11.05;51.60;101988.97;10308206;28;20043;-79
2023/06/09 20:46:45;;;;;;;2.13;1.70;;;;;;;11.00;51.67;101985.31;10301587;28;20050;-80
2023/06/09 20:51:47;;;;;;;1.98;1.27;;;;;;;10.90;52.27;101998.88;10304924;28;20043;-78
2023/06/09 20:56:49;;;;;;;2.17;1.50;;;;;;;10.80;53.41;101994.06;10325200;28;20052;-77
2023/06/09 21:01:52;;;;;;;1.75;1.40;;;;;;;10.74;52.74;101989.56;10279155;28;20034;-76
2023/06/09 21:06:54;;;;;;;3.42;2.10;;;;;;;10.68;52.90;101988.66;10284083;28;20043;-77
2023/06/09 21:11:56;;;;;;;2.20;1.60;;;;;;;10.57;51.55;102000.53;10276256;28;20086;-76
2023/06/09 21:16:58;;;;;;;2.35;1.50;;;;;;;10.62;52.22;101999.81;10315132;28;20098;-81
2023/06/09 21:22:01;;;;;;;3.03;1.60;;;;;;;10.65;51.69;101999.31;10308012;28;20039;-82
2023/06/09 21:27:03;;;;;;;1.42;0.95;;;;;;;10.58;51.52;101997.53;10304392;28;20058;-77
2023/06/09 21:32:06;;;;;;;1.60;1.17;;;;;;;10.53;51.28;102005.69;10320599;28;20510;-80
2023/06/09 21:37:08;;;;;;;1.45;1.10;;;;;;;10.41;51.04;102001.31;10321473;28;20047;-79
2023/06/09 21:42:12;;;;;;;1.65;1.10;;;;;;;10.37;50.81;102014.72;10304488;28;20062;-79
2023/06/09 21:47:14;;;;;;;1.42;0.80;;;;;;;10.32;50.70;102019.28;10326083;28;20054;-80
2023/06/09 21:52:16;;;;;;;1.45;1.08;;;;;;;10.31;50.06;102029.44;10306237;28;20057;-78
2023/06/09 21:57:18;;;;;;;2.58;1.10;;;;;;;10.17;51.07;102017.03;10297675;28;20043;-78
2023/06/09 22:02:21;;;;;;;5.72;1.65;;;;;;;10.19;50.75;102036.84;10320355;28;20042;-82
2023/06/09 22:07:23;;;;;;;2.05;1.08;;;;;;;10.09;51.82;102032.00;10305154;28;20030;-83
2023/06/09 22:12:37;;;;;;;2.50;0.90;;;;;;;10.01;52.36;102037.00;10311432;28;20517;-79
2023/06/09 22:17:41;;;;;;;3.63;1.30;;;;;;;9.88;53.03;102036.19;10299481;28;20042;-77
2023/06/09 22:22:43;;;;;;;1.98;0.88;;;;;;;9.91;52.98;102045.88;10298507;28;20054;-77
2023/06/09 22:27:46;;;;;;;1.17;1.08;;;;;;;9.83;52.94;102038.03;10284873;28;20426;-78
2023/06/09 22:32:49;;;;;;;0.95;0.85;;;;;;;9.77;52.13;102041.72;10283041;28;20518;-77
2023/06/09 22:37:52;;;;;;;0.60;0.55;;;;;;;9.63;53.25;102046.63;10282010;29;20446;-77
2023/06/09 22:42:54;;;;;;;0.80;0.75;;;;;;;9.55;53.27;102045.13;10282541;28;20058;-76
2023/06/09 22:47:58;;;;;;;0.82;0.60;;;;;;;9.45;53.35;102053.09;10265594;28;20509;-77
2023/06/09 22:53:01;;;;;;;0.65;0.63;;;;;;;9.34;52.87;102064.88;10316773;28;20059;-77
2023/06/09 22:58:04;;;;;;;2.60;0.75;;;;;;;9.38;53.53;102063.34;10296474;28;20051;-77
2023/06/09 23:03:07;;;;;;;3.53;0.70;;;;;;;9.39;53.56;102061.44;10265225;29;20048;-77
2023/06/09 23:08:09;;;;;;;0.73;0.63;;;;;;;9.35;53.02;102069.28;10288228;28;20047;-78
2023/06/09 23:13:12;;;;;;;1.10;0.90;;;;;;;9.38;53.08;102066.09;10296375;28;20051;-76
2023/06/09 23:18:14;;;;;;;1.85;0.70;;;;;;;9.40;53.88;102079.53;10301991;28;20506;-77